createdAt,value
2018-10-05T00:00:26.314Z,6.20
2018-10-05T00:02:54.649Z,6.00
2018-10-05T00:05:22.988Z,6.10
2018-10-05T00:07:51.349Z,6.00
2018-10-05T00:10:19.669Z,6.10
2018-10-05T00:12:48.023Z,6.10
2018-10-05T00:15:16.333Z,6.10
2018-10-05T00:17:44.681Z,6.00
2018-10-05T00:20:12.992Z,5.90
2018-10-05T00:22:41.345Z,5.90
2018-10-05T00:25:09.686Z,6.00
2018-10-05T00:27:38.009Z,6.00
2018-10-05T00:30:06.345Z,5.90
2018-10-05T00:32:34.729Z,5.80
2018-10-05T00:35:03.044Z,5.70
2018-10-05T00:37:31.365Z,5.60
2018-10-05T00:39:59.728Z,5.50
2018-10-05T00:42:28.082Z,5.40
2018-10-05T00:44:56.418Z,5.50
2018-10-05T00:47:24.753Z,5.60
2018-10-05T00:49:53.057Z,5.70
2018-10-05T00:52:21.392Z,5.60
2018-10-05T00:54:49.721Z,5.60
2018-10-05T00:57:18.057Z,5.60
2018-10-05T00:59:46.378Z,5.60
2018-10-05T01:02:14.714Z,5.70
2018-10-05T01:04:43.033Z,5.50
2018-10-05T01:07:11.367Z,5.50
2018-10-05T01:09:39.685Z,5.50
2018-10-05T01:12:08.013Z,5.30
2018-10-05T01:14:36.339Z,5.20
2018-10-05T01:17:04.750Z,5.40
2018-10-05T01:19:34.541Z,5.40
2018-10-05T01:22:02.874Z,5.30
2018-10-05T01:24:31.192Z,5.30
2018-10-05T01:26:59.535Z,5.10
2018-10-05T01:29:28.125Z,5.10
2018-10-05T01:31:56.492Z,5.00
2018-10-05T01:34:24.817Z,5.00
2018-10-05T01:36:53.158Z,5.10
2018-10-05T01:39:21.489Z,5.00
2018-10-05T01:41:49.810Z,4.90
2018-10-05T01:44:18.132Z,4.90
2018-10-05T01:46:46.524Z,5.00
2018-10-05T01:49:14.881Z,5.00
2018-10-05T01:51:43.194Z,5.10
2018-10-05T01:54:11.542Z,5.10
2018-10-05T01:56:39.883Z,5.20
2018-10-05T01:59:08.245Z,5.20
2018-10-05T02:01:36.550Z,5.10
2018-10-05T02:04:04.900Z,4.90
2018-10-05T02:06:33.225Z,4.80
2018-10-05T02:09:01.605Z,4.80
2018-10-05T02:11:29.921Z,4.80
2018-10-05T02:13:58.237Z,4.70
2018-10-05T02:16:26.553Z,4.70
2018-10-05T02:18:54.905Z,4.70
2018-10-05T02:21:23.222Z,4.60
2018-10-05T02:23:51.649Z,4.70
2018-10-05T02:26:19.954Z,4.80
2018-10-05T02:28:48.264Z,4.80
2018-10-05T02:31:17.212Z,4.90
2018-10-05T02:33:45.534Z,4.80
2018-10-05T02:36:13.833Z,4.70
2018-10-05T02:38:42.172Z,4.80
2018-10-05T02:41:10.473Z,4.70
2018-10-05T02:43:38.797Z,4.70
2018-10-05T02:46:07.241Z,4.60
2018-10-05T02:48:35.562Z,4.70
2018-10-05T02:51:03.862Z,4.80
2018-10-05T02:53:32.181Z,4.80
2018-10-05T02:56:00.497Z,4.80
2018-10-05T02:58:28.817Z,4.80
2018-10-05T03:08:08.674Z,4.80
2018-10-05T03:10:36.976Z,4.80
2018-10-05T03:13:05.302Z,4.80
2018-10-05T03:15:33.615Z,4.80
2018-10-05T03:18:02.050Z,4.80
2018-10-05T03:20:30.344Z,4.80
2018-10-05T03:22:58.666Z,4.70
2018-10-05T03:25:26.999Z,4.80
2018-10-05T03:27:55.303Z,4.70
2018-10-05T03:30:23.621Z,4.80
2018-10-05T03:32:51.934Z,4.80
2018-10-05T03:35:20.261Z,4.90
2018-10-05T03:37:48.574Z,4.80
2018-10-05T03:40:16.896Z,4.70
2018-10-05T03:42:45.192Z,4.70
2018-10-05T03:45:13.516Z,4.60
2018-10-05T03:47:41.888Z,4.60
2018-10-05T03:50:10.341Z,4.70
2018-10-05T03:52:39.005Z,4.60
2018-10-05T03:55:07.352Z,4.60
2018-10-05T03:57:35.658Z,4.60
2018-10-05T04:00:04.038Z,4.40
2018-10-05T04:02:32.373Z,4.40
2018-10-05T04:05:00.712Z,4.20
2018-10-05T04:07:29.014Z,4.10
2018-10-05T04:09:57.336Z,4.30
2018-10-05T04:12:25.654Z,4.20
2018-10-05T04:14:53.986Z,4.20
2018-10-05T04:17:22.306Z,4.30
2018-10-05T04:19:50.638Z,4.30
2018-10-05T04:22:23.841Z,4.30
2018-10-05T04:24:52.173Z,4.30
2018-10-05T04:27:20.570Z,4.30
2018-10-05T04:29:48.854Z,4.20
2018-10-05T04:32:17.198Z,4.20
2018-10-05T04:34:45.849Z,4.10
2018-10-05T04:37:14.157Z,4.10
2018-10-05T04:39:42.615Z,4.10
2018-10-05T04:42:11.277Z,4.20
2018-10-05T04:44:39.658Z,4.10
2018-10-05T04:47:08.024Z,4.00
2018-10-05T04:49:36.418Z,4.00
2018-10-05T04:52:04.682Z,4.00
2018-10-05T04:54:33.014Z,4.00
2018-10-05T04:57:01.430Z,3.90
2018-10-05T04:59:29.693Z,3.90
2018-10-05T05:01:58.013Z,3.90
2018-10-05T05:04:26.337Z,4.00
2018-10-05T05:06:54.658Z,4.10
2018-10-05T05:09:22.989Z,4.10
2018-10-05T05:11:51.398Z,4.20
2018-10-05T05:14:19.725Z,4.30
2018-10-05T05:16:48.032Z,4.20
2018-10-05T05:19:16.369Z,4.10
2018-10-05T05:21:44.681Z,4.20
2018-10-05T05:24:13.011Z,4.30
2018-10-05T05:26:41.322Z,4.30
2018-10-05T05:29:09.650Z,4.30
2018-10-05T05:31:37.972Z,4.30
2018-10-05T05:34:06.763Z,4.30
2018-10-05T05:36:34.986Z,4.20
2018-10-05T05:39:04.705Z,4.20
2018-10-05T05:41:33.058Z,4.10
2018-10-05T05:44:01.371Z,4.10
2018-10-05T05:46:29.697Z,4.10
2018-10-05T05:48:58.004Z,4.10
2018-10-05T05:51:26.339Z,4.00
2018-10-05T05:53:54.653Z,4.10
2018-10-05T05:56:22.985Z,4.20
2018-10-05T05:58:51.292Z,4.20
2018-10-05T06:01:19.625Z,4.10
2018-10-05T06:03:47.948Z,4.00
2018-10-05T06:06:16.301Z,4.00
2018-10-05T06:08:44.601Z,3.90
2018-10-05T06:11:12.945Z,3.90
2018-10-05T06:13:41.276Z,3.90
2018-10-05T06:16:09.694Z,4.10
2018-10-05T06:18:37.918Z,4.20
2018-10-05T06:21:06.462Z,4.20
2018-10-05T06:23:34.776Z,4.30
2018-10-05T06:26:03.099Z,4.30
2018-10-05T06:28:31.445Z,4.40
2018-10-05T06:30:59.921Z,4.50
2018-10-05T06:33:28.350Z,4.50
2018-10-05T06:35:56.675Z,4.50
2018-10-05T06:38:24.993Z,4.80
2018-10-05T06:40:53.358Z,5.00
2018-10-05T06:43:21.674Z,5.10
2018-10-05T06:45:50.003Z,5.20
2018-10-05T06:48:18.339Z,5.30
2018-10-05T06:50:46.684Z,5.50
2018-10-05T06:53:15.069Z,5.80
2018-10-05T06:55:43.398Z,6.20
2018-10-05T06:58:11.717Z,6.30
2018-10-05T07:00:40.062Z,6.60
2018-10-05T07:03:08.364Z,6.90
2018-10-05T07:05:36.717Z,7.20
2018-10-05T07:08:05.048Z,7.30
2018-10-05T07:10:33.797Z,7.50
2018-10-05T07:13:02.456Z,7.60
2018-10-05T07:15:30.834Z,8.10
2018-10-05T07:17:59.145Z,8.30
2018-10-05T07:20:27.481Z,8.60
2018-10-05T07:22:55.795Z,8.90
2018-10-05T07:25:24.111Z,9.00
2018-10-05T07:27:52.439Z,9.10
2018-10-05T07:30:20.745Z,9.10
2018-10-05T07:32:49.099Z,9.00
2018-10-05T07:35:17.442Z,8.80
2018-10-05T07:37:45.786Z,9.10
2018-10-05T07:40:14.123Z,9.60
2018-10-05T07:42:42.457Z,10.60
2018-10-05T07:45:10.778Z,12.00
2018-10-05T07:47:39.121Z,13.80
2018-10-05T07:50:07.473Z,14.50
2018-10-05T07:52:35.931Z,14.80
2018-10-05T07:55:04.301Z,14.40
2018-10-05T07:57:32.653Z,14.00
2018-10-05T08:00:00.962Z,14.20
2018-10-05T08:02:29.325Z,14.30
2018-10-05T08:04:57.663Z,14.30
2018-10-05T08:07:26.037Z,14.60
2018-10-05T08:09:54.357Z,14.30
2018-10-05T08:12:22.698Z,15.50
2018-10-05T08:14:51.050Z,15.50
2018-10-05T08:17:19.405Z,15.40
2018-10-05T08:19:47.779Z,15.30
2018-10-05T08:22:16.139Z,15.10
2018-10-05T08:24:44.470Z,14.80
2018-10-05T08:27:13.072Z,15.30
2018-10-05T08:29:41.191Z,15.40
2018-10-05T08:32:09.539Z,15.50
2018-10-05T08:34:38.036Z,15.40
2018-10-05T08:37:06.385Z,15.40
2018-10-05T08:39:34.710Z,15.80
2018-10-05T08:42:03.065Z,15.50
2018-10-05T08:44:31.371Z,15.60
2018-10-05T08:46:59.701Z,15.70
2018-10-05T08:49:28.022Z,15.90
2018-10-05T08:51:56.384Z,16.20
2018-10-05T08:54:24.682Z,16.20
2018-10-05T08:56:53.020Z,16.10
2018-10-05T08:59:21.338Z,16.00
2018-10-05T09:01:49.685Z,16.00
2018-10-05T09:04:18.065Z,16.30
2018-10-05T09:06:46.449Z,16.20
2018-10-05T09:09:14.768Z,16.50
2018-10-05T09:11:43.101Z,16.50
2018-10-05T09:14:11.438Z,16.40
2018-10-05T09:16:39.786Z,16.50
2018-10-05T09:19:08.568Z,16.70
2018-10-05T09:21:36.952Z,16.80
2018-10-05T09:24:05.312Z,16.90
2018-10-05T09:26:33.661Z,16.90
2018-10-05T09:29:02.006Z,17.00
2018-10-05T09:31:30.324Z,16.90
2018-10-05T09:33:58.654Z,17.10
2018-10-05T09:36:26.977Z,17.20
2018-10-05T09:38:55.324Z,17.30
2018-10-05T09:41:23.641Z,17.40
2018-10-05T09:43:51.968Z,17.60
2018-10-05T09:46:20.291Z,18.20
2018-10-05T09:48:48.629Z,18.30
2018-10-05T09:51:16.972Z,18.40
2018-10-05T09:53:45.285Z,18.20
2018-10-05T09:56:13.607Z,18.20
2018-10-05T09:58:41.953Z,18.50
2018-10-05T10:01:15.466Z,18.70
2018-10-05T10:03:43.811Z,19.10
2018-10-05T10:06:12.129Z,19.30
2018-10-05T10:08:40.484Z,19.20
2018-10-05T10:11:08.788Z,19.40
2018-10-05T10:13:37.209Z,19.30
2018-10-05T10:16:05.530Z,19.40
2018-10-05T10:18:33.880Z,19.40
2018-10-05T10:21:02.225Z,19.90
2018-10-05T10:23:30.594Z,20.70
2018-10-05T10:25:58.920Z,20.90
2018-10-05T10:28:27.334Z,20.30
2018-10-05T10:30:55.599Z,20.00
2018-10-05T10:33:23.945Z,19.60
2018-10-05T10:35:52.258Z,19.50
2018-10-05T10:38:20.607Z,19.50
2018-10-05T10:40:48.937Z,19.50
2018-10-05T10:43:17.260Z,19.50
2018-10-05T10:45:45.626Z,19.50
2018-10-05T10:48:14.020Z,19.40
2018-10-05T10:50:42.309Z,19.50
2018-10-05T10:53:10.696Z,19.50
2018-10-05T10:55:40.269Z,19.80
2018-10-05T10:58:09.265Z,19.90
2018-10-05T11:00:38.215Z,19.60
2018-10-05T11:03:07.371Z,19.60
2018-10-05T11:05:35.648Z,19.70
2018-10-05T11:08:03.973Z,19.80
2018-10-05T11:10:32.687Z,20.10
2018-10-05T11:13:01.057Z,20.20
2018-10-05T11:15:29.374Z,20.20
2018-10-05T11:17:57.703Z,20.40
2018-10-05T11:20:26.052Z,20.50
2018-10-05T11:22:54.352Z,20.90
2018-10-05T11:25:22.681Z,21.40
2018-10-05T11:27:50.994Z,21.70
2018-10-05T11:30:19.384Z,22.60
2018-10-05T11:32:47.809Z,23.70
2018-10-05T11:35:16.146Z,24.70
2018-10-05T11:37:44.457Z,25.20
2018-10-05T11:40:12.846Z,25.70
2018-10-05T11:42:41.202Z,25.70
2018-10-05T11:45:09.546Z,25.70
2018-10-05T11:47:37.909Z,26.80
2018-10-05T11:50:06.273Z,26.40
2018-10-05T11:52:34.637Z,27.10
2018-10-05T11:55:03.093Z,27.40
2018-10-05T11:57:31.405Z,27.60
2018-10-05T11:59:59.762Z,27.80
2018-10-05T12:02:28.340Z,27.60
2018-10-05T12:04:56.661Z,27.20
2018-10-05T12:07:24.995Z,26.90
2018-10-05T12:09:53.417Z,27.10
2018-10-05T12:12:21.733Z,27.10
2018-10-05T12:14:50.086Z,26.90
2018-10-05T12:17:18.384Z,27.00
2018-10-05T12:19:46.716Z,26.50
2018-10-05T12:22:15.053Z,25.90
2018-10-05T12:24:43.394Z,25.60
2018-10-05T12:27:11.719Z,25.70
2018-10-05T12:29:40.050Z,25.70
2018-10-05T12:32:08.373Z,25.70
2018-10-05T12:34:36.739Z,24.80
2018-10-05T12:37:05.340Z,24.70
2018-10-05T12:39:33.636Z,24.00
2018-10-05T12:42:02.289Z,23.60
2018-10-05T12:44:30.606Z,23.80
2018-10-05T12:46:58.942Z,23.70
2018-10-05T12:49:27.271Z,24.00
2018-10-05T12:51:55.576Z,23.90
2018-10-05T12:54:24.292Z,24.60
2018-10-05T12:58:14.500Z,24.60
2018-10-05T13:00:44.755Z,24.80
2018-10-05T13:03:14.790Z,23.40
2018-10-05T13:05:45.226Z,22.30
2018-10-05T13:08:15.314Z,21.70
2018-10-05T13:10:45.072Z,21.10
2018-10-05T16:00:41.490Z,18.80
2018-10-05T16:03:09.831Z,18.80
2018-10-05T16:05:40.369Z,18.40
2018-10-05T16:08:09.464Z,18.20
2018-10-05T16:10:39.678Z,18.10
2018-10-05T16:13:10.175Z,17.90
2018-10-05T16:15:40.325Z,17.90
2018-10-05T16:18:09.412Z,17.90
2018-10-05T16:20:38.443Z,17.70
2018-10-05T16:23:07.411Z,17.70
2018-10-05T16:25:36.481Z,17.80
2018-10-05T16:28:05.359Z,17.60
2018-10-05T16:30:34.203Z,17.60
2018-10-05T16:33:04.022Z,17.40
2018-10-05T16:35:32.864Z,17.40
2018-10-05T16:38:02.260Z,17.40
2018-10-05T16:40:31.304Z,17.40
2018-10-05T16:43:00.083Z,17.80
2018-10-05T16:45:28.406Z,18.10
2018-10-05T16:47:57.117Z,18.10
2018-10-05T16:50:26.101Z,17.70
2018-10-05T16:52:55.284Z,17.70
2018-10-05T16:55:24.210Z,17.60
2018-10-05T16:57:52.929Z,17.20
2018-10-05T17:00:21.765Z,16.70
2018-10-05T17:02:50.106Z,16.40
2018-10-05T17:05:19.207Z,16.20
2018-10-05T17:07:48.391Z,16.00
2018-10-05T17:10:17.459Z,15.80
2018-10-05T17:12:45.801Z,15.70
2018-10-05T17:15:14.662Z,15.60
2018-10-05T17:17:43.867Z,15.50
2018-10-05T17:20:12.772Z,15.40
2018-10-05T17:22:41.647Z,15.30
2018-10-05T17:25:09.954Z,15.20
2018-10-05T17:27:38.270Z,15.20
2018-10-05T17:30:06.629Z,15.10
2018-10-05T17:32:35.813Z,14.90
2018-10-05T17:35:04.201Z,14.80
2018-10-05T17:37:33.138Z,14.70
2018-10-05T17:40:02.011Z,14.60
2018-10-05T17:42:31.175Z,14.60
2018-10-05T17:44:59.565Z,14.50
2018-10-05T17:47:28.460Z,14.40
2018-10-05T17:49:57.927Z,14.80
2018-10-05T17:52:26.894Z,15.30
2018-10-05T17:54:56.645Z,15.50
2018-10-05T17:57:25.770Z,15.40
2018-10-05T17:59:54.921Z,15.00
2018-10-05T18:02:24.112Z,14.60
2018-10-05T18:04:52.878Z,14.30
2018-10-05T18:07:21.767Z,14.10
2018-10-05T18:09:51.023Z,14.00
2018-10-05T18:12:20.230Z,13.90
2018-10-05T18:14:49.081Z,13.80
2018-10-05T18:17:18.037Z,13.70
2018-10-05T18:19:46.653Z,13.60
2018-10-05T18:22:15.666Z,13.50
2018-10-05T18:24:44.683Z,13.30
2018-10-05T18:27:13.596Z,13.30
2018-10-05T18:29:42.114Z,13.20
2018-10-05T18:32:10.822Z,13.10
2018-10-05T18:34:40.240Z,13.10
2018-10-05T18:37:08.641Z,13.00
2018-10-05T18:39:37.016Z,12.90
2018-10-05T18:42:05.710Z,12.90
2018-10-05T18:44:34.594Z,12.90
2018-10-05T18:47:03.438Z,12.80
2018-10-05T18:49:32.503Z,12.80
2018-10-05T18:52:01.496Z,12.80
2018-10-05T18:54:30.591Z,12.70
2018-10-05T18:57:10.553Z,12.70
2018-10-05T18:59:39.763Z,12.60
2018-10-05T19:02:09.361Z,12.50
2018-10-05T19:04:38.385Z,12.50
2018-10-05T19:07:08.011Z,12.40
2018-10-05T19:09:37.069Z,12.40
2018-10-05T19:12:06.568Z,12.30
2018-10-05T19:14:35.865Z,12.30
2018-10-05T19:17:04.200Z,12.20
2018-10-05T19:19:33.094Z,12.20
2018-10-05T19:22:02.119Z,12.20
2018-10-05T19:24:31.157Z,12.20
2018-10-05T19:26:59.924Z,12.00
2018-10-05T19:29:28.436Z,12.00
2018-10-05T19:31:57.491Z,11.90
2018-10-05T19:34:26.279Z,11.90
2018-10-05T19:36:54.671Z,11.90
2018-10-05T19:39:23.004Z,11.80
2018-10-05T19:41:52.203Z,11.80
2018-10-05T19:44:21.429Z,11.60
2018-10-05T19:46:49.806Z,11.60
2018-10-05T19:49:19.115Z,11.50
2018-10-05T19:51:47.442Z,11.40
2018-10-05T19:54:15.808Z,11.20
2018-10-05T19:56:44.430Z,11.20
2018-10-05T19:59:13.657Z,11.20
2018-10-05T20:01:43.005Z,11.30
2018-10-05T20:04:12.343Z,11.30
2018-10-05T20:06:40.737Z,11.30
2018-10-05T20:09:09.077Z,11.30
2018-10-05T20:11:37.379Z,11.20
2018-10-05T20:14:06.379Z,11.10
2018-10-05T20:16:34.772Z,11.10
2018-10-05T20:19:03.825Z,11.10
2018-10-05T20:21:32.888Z,11.10
2018-10-05T20:24:01.525Z,11.10
2018-10-05T20:26:30.163Z,11.10
2018-10-05T20:28:58.962Z,11.20
2018-10-05T20:31:27.990Z,11.20
2018-10-05T20:33:57.381Z,11.10
2018-10-05T20:36:26.209Z,11.10
2018-10-05T20:38:54.547Z,11.10
2018-10-05T20:41:23.285Z,11.10
2018-10-05T20:43:52.484Z,11.10
2018-10-05T20:46:21.951Z,11.10
2018-10-05T20:48:50.389Z,11.10
2018-10-05T20:51:24.062Z,11.00
2018-10-05T20:53:52.714Z,11.00
2018-10-05T20:56:21.066Z,11.00
2018-10-05T20:58:49.360Z,10.80
2018-10-05T21:01:18.668Z,10.80
2018-10-05T21:03:47.046Z,10.70
2018-10-05T21:06:15.409Z,10.70
2018-10-05T21:08:43.728Z,10.60
2018-10-05T21:11:12.266Z,10.50
2018-10-05T21:13:41.003Z,10.60
2018-10-05T21:16:09.542Z,10.50
2018-10-05T21:18:38.713Z,10.50
2018-10-05T21:21:08.215Z,10.50
2018-10-05T21:23:37.565Z,10.40
2018-10-05T21:26:05.970Z,10.40
2018-10-05T21:28:34.291Z,10.40
2018-10-05T21:31:02.618Z,10.40
2018-10-05T21:33:30.920Z,10.40
2018-10-05T21:35:59.253Z,10.30
2018-10-05T21:38:27.954Z,10.30
2018-10-05T21:40:57.289Z,10.20
2018-10-05T21:43:26.352Z,10.20
2018-10-05T21:45:54.660Z,10.30
2018-10-05T21:48:23.021Z,10.30
2018-10-05T21:50:51.355Z,10.20
2018-10-05T21:53:19.693Z,10.20
2018-10-05T21:55:48.074Z,10.20
2018-10-05T21:58:17.326Z,10.20
2018-10-05T22:00:46.282Z,10.00
2018-10-05T22:03:14.638Z,9.90
2018-10-05T22:05:42.975Z,9.80
2018-10-05T22:08:11.273Z,9.80
2018-10-05T22:10:39.592Z,9.80
2018-10-05T22:13:07.891Z,9.80
2018-10-05T22:15:36.246Z,9.90
2018-10-05T22:18:04.550Z,9.90
2018-10-05T22:20:32.865Z,9.80
2018-10-05T22:23:01.284Z,9.80
2018-10-05T22:25:29.598Z,9.80
2018-10-05T22:27:57.901Z,9.80
2018-10-05T22:30:26.223Z,9.70
2018-10-05T22:32:54.520Z,9.70
2018-10-05T22:35:22.869Z,9.70
2018-10-05T22:37:51.539Z,9.70
2018-10-05T22:40:19.874Z,9.70
2018-10-05T22:42:48.176Z,9.70
2018-10-05T22:45:16.506Z,9.80
2018-10-05T22:47:44.925Z,9.80
2018-10-05T22:50:13.252Z,9.70
2018-10-05T22:52:41.573Z,9.70
2018-10-05T22:55:09.912Z,9.50
2018-10-05T22:57:38.235Z,9.40
2018-10-05T23:00:06.758Z,9.40
2018-10-05T23:02:35.092Z,9.40
2018-10-05T23:05:03.408Z,9.40
2018-10-05T23:07:31.724Z,9.50
2018-10-05T23:10:00.026Z,9.50
2018-10-05T23:12:28.373Z,9.40
2018-10-05T23:14:56.680Z,9.40
2018-10-05T23:17:25.001Z,9.30
2018-10-05T23:19:53.289Z,9.30
2018-10-05T23:22:21.631Z,9.30
2018-10-05T23:24:50.004Z,9.30
2018-10-05T23:27:18.302Z,9.20
2018-10-05T23:29:46.606Z,9.20
2018-10-05T23:32:14.953Z,9.20
2018-10-05T23:34:43.266Z,9.20
2018-10-05T23:37:11.605Z,9.30
2018-10-05T23:39:39.908Z,9.20
2018-10-05T23:42:08.222Z,9.20
2018-10-05T23:44:36.536Z,9.20
2018-10-05T23:47:05.155Z,9.20
2018-10-05T23:49:33.484Z,9.10
2018-10-05T23:52:56.625Z,9.00
2018-10-05T23:55:24.929Z,9.00
2018-10-05T23:57:53.248Z,9.20
